Time;durP1;ratioP1;P1;durP2;ratioP2;P2;SDS_P1;SDS_P2;PMS_P1;PMS_P2;Temp;Humidity;BMP_temperature;BMP_pressure;BME280_temperature;BME280_humidity;BME280_pressure;Samples;Min_cycle;Max_cycle;Signal;HPM_P1;HPM_P2
2022/12/20 00:01:33;;;;;;;0.80;0.80;;;;;;;5.44;61.43;97078.47;5093899;28;20427;-55
2022/12/20 00:04:04;;;;;;;0.37;0.30;;;;;;;5.08;60.08;97021.63;5093438;28;20508;-55
2022/12/20 00:06:35;;;;;;;0.40;0.40;;;;;;;5.52;60.71;97036.22;5093536;28;20805;-55
2022/12/20 00:09:06;;;;;;;0.40;0.30;;;;;;;5.50;59.58;97085.56;5092868;28;20441;-56
2022/12/20 00:11:36;;;;;;;0.77;0.77;;;;;;;5.47;59.50;97083.31;5093497;28;20457;-55
2022/12/20 00:14:04;;;;;;;0.40;0.30;;;;;;;4.86;61.54;97072.63;5093458;28;20476;-55
2022/12/20 00:16:33;;;;;;;0.40;0.30;;;;;;;4.56;61.06;97089.53;5093079;28;20464;-55
2022/12/20 00:19:03;;;;;;;1.17;1.17;;;;;;;4.42;61.66;97080.72;5093073;28;20464;-55
2022/12/20 00:21:33;;;;;;;0.40;0.33;;;;;;;4.59;61.73;97089.16;5092936;28;20828;-55
2022/12/20 00:24:03;;;;;;;0.40;0.30;;;;;;;4.78;64.26;97093.75;5092897;28;20471;-55
2022/12/20 00:26:34;;;;;;;0.70;0.33;;;;;;;5.13;63.49;97095.44;5092783;28;20496;-55
2022/12/20 00:29:03;;;;;;;0.47;0.47;;;;;;;4.35;67.77;96900.56;5092169;28;20461;-55
2022/12/20 00:31:31;;;;;;;0.47;0.37;;;;;;;4.72;62.77;97023.63;5092767;28;20467;-55
2022/12/20 00:34:00;;;;;;;0.43;0.40;;;;;;;4.61;60.31;97092.41;5092968;28;20945;-55
2022/12/20 00:36:31;;;;;;;0.33;0.27;;;;;;;4.38;61.21;97094.41;5092443;28;20520;-55
2022/12/20 00:39:02;;;;;;;0.30;0.30;;;;;;;4.59;71.50;97090.97;5092653;28;20437;-55
2022/12/20 00:41:32;;;;;;;0.30;0.20;;;;;;;5.03;70.51;97091.56;5093024;28;20423;-56
2022/12/20 00:44:01;;;;;;;0.50;0.50;;;;;;;5.23;67.40;97083.78;5092257;28;20425;-55
2022/12/20 00:46:30;;;;;;;0.40;0.40;;;;;;;4.53;63.09;97097.00;5092856;28;20475;-55
2022/12/20 00:48:59;;;;;;;0.40;0.27;;;;;;;4.70;65.34;97093.09;5092376;28;20483;-55
2022/12/20 00:51:29;;;;;;;0.87;0.73;;;;;;;4.73;66.94;97092.72;5092852;28;20436;-55
2022/12/20 00:53:58;;;;;;;0.67;0.57;;;;;;;3.74;63.50;97039.22;5092619;28;20456;-55
2022/12/20 00:56:28;;;;;;;1.03;1.03;;;;;;;3.63;62.52;97068.56;5092503;28;20428;-55
2022/12/20 00:58:58;;;;;;;0.40;0.30;;;;;;;3.83;63.54;97090.59;5092722;28;20783;-55
2022/12/20 01:01:29;;;;;;;0.50;0.30;;;;;;;4.33;65.89;97089.72;5092584;28;20901;-55
2022/12/20 01:03:58;;;;;;;0.40;0.30;;;;;;;4.42;70.70;97069.41;5092390;28;20428;-55
2022/12/20 01:06:27;;;;;;;0.30;0.20;;;;;;;4.68;66.29;97092.47;5092213;28;20508;-55
2022/12/20 01:08:56;;;;;;;0.30;0.20;;;;;;;4.59;66.50;97065.53;5092290;28;20432;-55
2022/12/20 01:11:26;;;;;;;1.33;0.33;;;;;;;4.59;64.50;97064.72;5092462;28;20421;-55
2022/12/20 01:13:58;;;;;;;0.50;0.50;;;;;;;4.52;67.14;97079.59;5092305;28;20428;-55
2022/12/20 01:16:29;;;;;;;0.40;0.30;;;;;;;3.52;63.58;97003.47;5092383;28;20424;-55
2022/12/20 01:18:57;;;;;;;0.30;0.30;;;;;;;3.91;66.65;97062.63;5092424;28;20413;-55
2022/12/20 01:21:27;;;;;;;0.30;0.30;;;;;;;4.24;64.65;97056.72;5092011;28;21001;-55
2022/12/20 01:23:56;;;;;;;0.30;0.20;;;;;;;4.17;63.39;97074.22;5091971;28;20508;-55
2022/12/20 01:26:27;;;;;;;0.60;0.50;;;;;;;3.81;63.40;97070.78;5091786;28;20520;-55
2022/12/20 01:28:59;;;;;;;1.67;1.60;;;;;;;4.31;67.46;97072.53;5091729;28;20933;-55
2022/12/20 01:31:30;;;;;;;0.30;0.20;;;;;;;4.50;62.13;97064.84;5091836;28;20429;-55
2022/12/20 01:33:59;;;;;;;0.50;0.50;;;;;;;3.90;62.05;97067.03;5092240;28;20428;-55
2022/12/20 01:36:30;;;;;;;0.80;0.53;;;;;;;4.33;64.30;97060.84;5091973;28;20464;-55
2022/12/20 01:38:59;;;;;;;0.40;0.23;;;;;;;4.11;63.76;97058.38;5091964;28;20425;-55
2022/12/20 01:41:30;;;;;;;0.40;0.30;;;;;;;4.40;63.91;97059.09;5091859;28;21063;-55
2022/12/20 01:44:01;;;;;;;0.57;0.33;;;;;;;4.30;64.30;97039.44;5091842;28;20436;-55
2022/12/20 01:46:34;;;;;;;1.07;0.77;;;;;;;4.58;64.65;97055.22;5091877;28;20523;-55
2022/12/20 01:49:09;;;;;;;0.30;0.20;;;;;;;3.98;69.16;96955.94;5091552;28;20503;-55
2022/12/20 01:51:43;;;;;;;3.53;0.30;;;;;;;3.20;66.85;96888.59;5091599;28;20425;-55
2022/12/20 01:54:15;;;;;;;0.50;0.37;;;;;;;3.73;71.50;97037.59;5091501;28;20444;-55
2022/12/20 01:56:48;;;;;;;0.40;0.40;;;;;;;2.87;64.69;96982.47;5091627;28;20487;-55
2022/12/20 01:59:22;;;;;;;0.30;0.20;;;;;;;3.55;66.88;97049.47;5091191;28;20524;-56
2022/12/20 02:01:50;;;;;;;0.87;0.87;;;;;;;2.94;66.83;97029.69;5091497;28;20466;-55
2022/12/20 02:04:19;;;;;;;1.60;0.63;;;;;;;3.65;69.84;97048.19;5091482;28;20428;-55
2022/12/20 02:06:47;;;;;;;3.93;0.37;;;;;;;2.71;65.16;96950.44;5090728;28;20777;-55
2022/12/20 02:09:16;;;;;;;1.17;1.07;;;;;;;2.89;67.07;97042.53;5091718;28;20476;-55
2022/12/20 02:11:56;;;;;;;0.30;0.30;;;;;;;2.82;71.79;96989.25;5090898;28;20504;-55
2022/12/20 02:14:42;;;;;;;2.10;0.77;;;;;;;1.46;68.24;96827.38;5092114;28;20515;-55
2022/12/20 02:17:19;;;;;;;0.40;0.33;;;;;;;3.25;69.26;97032.97;5091799;28;20913;-55
2022/12/20 02:20:14;;;;;;;0.30;0.30;;;;;;;3.17;66.99;96989.34;5091518;28;20420;-55
2022/12/20 02:22:55;;;;;;;0.73;0.73;;;;;;;3.43;69.37;97022.09;5091559;28;20429;-55
2022/12/20 02:25:44;;;;;;;3.70;0.40;;;;;;;3.69;67.46;97010.13;5091330;28;20433;-55
2022/12/20 02:28:31;;;;;;;0.30;0.30;;;;;;;4.05;74.95;97025.03;5090716;28;20490;-55
2022/12/20 02:31:08;;;;;;;0.53;0.53;;;;;;;3.04;66.54;96972.63;5091508;28;20437;-55
2022/12/20 02:33:37;;;;;;;3.47;0.50;;;;;;;3.61;68.44;96973.53;5091302;28;20474;-55
2022/12/20 02:36:06;;;;;;;0.40;0.30;;;;;;;3.39;69.85;97029.50;5091005;28;20425;-55
2022/12/20 02:38:36;;;;;;;1.27;0.43;;;;;;;3.01;71.26;97025.41;5091361;28;20425;-54
2022/12/20 02:41:09;;;;;;;0.30;0.20;;;;;;;3.15;71.84;97021.94;5091610;28;20512;-55
2022/12/20 02:46:29;;;;;;;1.30;1.30;;;;;;;2.58;72.99;96993.72;5091192;28;20446;-55
2022/12/20 02:49:02;;;;;;;0.40;0.30;;;;;;;2.53;73.37;96993.47;5091106;28;20485;-55
2022/12/20 02:51:32;;;;;;;4.40;2.27;;;;;;;2.70;74.16;97012.44;5092821;28;20424;-55
2022/12/20 02:54:01;;;;;;;0.30;0.20;;;;;;;2.49;75.88;97010.53;5094603;28;20464;-55
2022/12/20 02:56:34;;;;;;;0.50;0.50;;;;;;;0.84;76.05;96811.81;5094656;28;20515;-55
2022/12/20 02:59:09;;;;;;;0.67;0.50;;;;;;;2.00;76.52;96951.75;5094988;28;20437;-55
2022/12/20 03:01:45;;;;;;;0.53;0.53;;;;;;;2.69;81.06;97004.75;5094445;28;21020;-55
2022/12/20 03:04:14;;;;;;;0.30;0.30;;;;;;;3.15;76.21;97007.06;5095025;28;20432;-54
2022/12/20 03:06:56;;;;;;;0.30;0.20;;;;;;;3.23;73.82;96990.41;5094488;28;20471;-54
2022/12/20 03:09:25;;;;;;;1.37;1.37;;;;;;;3.26;72.11;97003.16;5094363;28;21025;-54
2022/12/20 03:11:53;;;;;;;0.30;0.30;;;;;;;3.14;71.06;97005.41;5094707;28;20517;-55
2022/12/20 03:14:22;;;;;;;0.40;0.40;;;;;;;3.02;72.35;97003.44;5094416;28;20515;-55
2022/12/20 03:16:52;;;;;;;0.63;0.63;;;;;;;2.96;73.31;96994.47;5094600;28;20425;-55
2022/12/20 03:19:20;;;;;;;0.60;0.60;;;;;;;3.37;71.19;97005.31;5094263;28;20936;-55
2022/12/20 03:21:49;;;;;;;0.87;0.40;;;;;;;3.09;69.51;97006.94;5094180;28;20425;-55
2022/12/20 03:24:17;;;;;;;0.80;0.60;;;;;;;2.96;69.30;97001.56;5094207;28;20432;-55
2022/12/20 03:26:45;;;;;;;1.20;1.17;;;;;;;2.41;70.21;96928.66;5093758;28;20963;-55
2022/12/20 03:29:14;;;;;;;0.50;0.50;;;;;;;2.84;72.79;97010.81;5094105;28;20509;-55
2022/12/20 03:31:42;;;;;;;0.50;0.40;;;;;;;2.53;70.82;97009.16;5094288;28;20483;-55
2022/12/20 03:34:12;;;;;;;0.40;0.30;;;;;;;2.58;73.36;97002.59;5094347;28;20746;-55
2022/12/20 03:36:40;;;;;;;0.40;0.30;;;;;;;2.85;73.69;97007.22;5093962;28;20935;-55
2022/12/20 03:39:08;;;;;;;0.40;0.33;;;;;;;2.56;73.41;97013.22;5093800;28;20419;-55
2022/12/20 03:41:36;;;;;;;0.40;0.30;;;;;;;2.50;72.65;97009.50;5093814;28;20941;-55
2022/12/20 03:44:05;;;;;;;0.70;0.70;;;;;;;2.21;74.44;96967.59;5094202;28;20429;-55
2022/12/20 03:46:33;;;;;;;0.70;0.70;;;;;;;2.64;71.48;97017.56;5093951;28;20429;-53
2022/12/20 03:49:02;;;;;;;0.77;0.77;;;;;;;2.20;69.82;96962.53;5093392;28;20523;-55
2022/12/20 03:51:31;;;;;;;1.03;1.03;;;;;;;2.61;70.91;96997.78;5092727;28;20439;-54
2022/12/20 03:54:00;;;;;;;1.47;1.33;;;;;;;2.61;73.68;96991.78;5093726;28;20508;-54
2022/12/20 03:56:28;;;;;;;0.50;0.43;;;;;;;2.56;72.49;97016.66;5093771;28;20459;-54
2022/12/20 03:58:56;;;;;;;0.77;0.77;;;;;;;2.41;72.30;96991.44;5093462;28;20937;-54
2022/12/20 04:01:26;;;;;;;1.67;1.40;;;;;;;2.33;70.04;97010.66;5093450;28;20506;-54
2022/12/20 04:03:56;;;;;;;2.93;2.50;;;;;;;1.76;69.54;96991.16;5092538;28;20516;-54
2022/12/20 04:06:24;;;;;;;0.90;0.90;;;;;;;2.17;70.45;97005.56;5093303;28;20940;-54
2022/12/20 04:08:54;;;;;;;2.13;0.63;;;;;;;1.86;71.55;96999.56;5093465;28;20476;-55
2022/12/20 04:11:23;;;;;;;0.90;0.90;;;;;;;1.86;72.63;96987.31;5093468;28;20435;-54
2022/12/20 04:13:52;;;;;;;1.63;1.53;;;;;;;2.07;72.75;97014.63;5093365;28;20818;-54
2022/12/20 04:16:23;;;;;;;0.93;0.70;;;;;;;2.07;72.75;97015.44;5093019;28;20433;-53
2022/12/20 04:18:51;;;;;;;0.90;0.90;;;;;;;2.16;74.60;97008.34;5092686;28;20432;-53
2022/12/20 04:21:22;;;;;;;88.40;1.53;;;;;;;1.90;72.65;96998.22;5092991;28;20889;-53
2022/12/20 04:23:51;;;;;;;0.87;0.87;;;;;;;1.85;74.06;97005.78;5092936;28;20504;-54
2022/12/20 04:26:21;;;;;;;1.03;1.03;;;;;;;1.11;74.83;96918.34;5092914;28;20421;-54
2022/12/20 04:28:50;;;;;;;2.47;2.37;;;;;;;2.08;74.69;97009.22;5092617;28;20471;-54
2022/12/20 04:31:18;;;;;;;1.20;1.20;;;;;;;1.00;74.67;96837.81;5092515;28;20429;-54
2022/12/20 04:33:51;;;;;;;0.90;0.70;;;;;;;1.91;74.96;96963.25;5092898;28;20432;-53
2022/12/20 04:36:20;;;;;;;2.30;2.20;;;;;;;2.00;76.40;97021.56;5092550;28;20425;-54
2022/12/20 04:38:48;;;;;;;0.97;0.97;;;;;;;0.86;76.63;96830.72;5092746;28;20412;-55
2022/12/20 04:41:22;;;;;;;1.13;0.57;;;;;;;2.20;75.71;97013.03;5092075;28;20888;-55
2022/12/20 04:43:54;;;;;;;0.40;0.30;;;;;;;1.92;76.74;97017.19;5098773;28;20505;-54
2022/12/20 04:46:23;;;;;;;1.10;0.67;;;;;;;1.39;77.99;96947.44;5112696;28;20467;-54
2022/12/20 04:48:54;;;;;;;0.50;0.50;;;;;;;1.54;79.63;97005.00;5112562;28;20495;-54
2022/12/20 04:51:26;;;;;;;0.50;0.50;;;;;;;1.89;79.51;97030.59;5112940;28;20432;-54
2022/12/20 04:53:54;;;;;;;5.27;1.80;;;;;;;1.61;79.59;97003.31;5112905;28;20428;-54
2022/12/20 04:56:26;;;;;;;0.67;0.67;;;;;;;1.78;79.26;97020.53;5112848;28;20435;-54
2022/12/20 04:58:58;;;;;;;1.23;1.23;;;;;;;1.66;80.19;97020.13;5112901;28;20427;-54
2022/12/20 05:01:27;;;;;;;1.47;1.37;;;;;;;1.38;80.70;97011.13;5112324;28;20468;-54
2022/12/20 05:03:56;;;;;;;0.50;0.50;;;;;;;1.44;82.05;97007.84;5112414;28;20459;-54
2022/12/20 05:06:24;;;;;;;0.60;0.60;;;;;;;1.29;82.72;97006.94;5112163;28;20898;-54
2022/12/20 05:08:54;;;;;;;1.27;1.17;;;;;;;1.49;83.05;97015.16;5112547;28;20510;-55
2022/12/20 05:11:22;;;;;;;0.57;0.57;;;;;;;1.87;80.78;97016.91;5112044;28;20431;-54
2022/12/20 05:13:50;;;;;;;0.50;0.50;;;;;;;1.88;79.53;96990.56;5112028;28;20428;-54
2022/12/20 05:16:20;;;;;;;1.33;0.87;;;;;;;1.91;77.62;96994.63;5111951;28;20955;-54
2022/12/20 05:18:48;;;;;;;0.40;0.40;;;;;;;2.05;76.42;96980.00;5112340;28;20408;-54
2022/12/20 05:26:48;;;;;;;1.57;0.93;;;;;;;2.21;73.84;96985.91;5111236;28;20432;-54
2022/12/20 05:29:16;;;;;;;0.40;0.30;;;;;;;2.26;73.06;97001.88;5112138;28;20469;-54
2022/12/20 05:31:46;;;;;;;2.00;0.93;;;;;;;2.21;74.12;97009.44;5111807;28;20454;-54
2022/12/20 05:34:15;;;;;;;1.00;1.00;;;;;;;1.75;74.94;96985.09;5111842;28;20757;-57
2022/12/20 05:36:43;;;;;;;6.97;0.57;;;;;;;1.95;77.45;96998.50;5111611;28;20455;-53
2022/12/20 05:39:11;;;;;;;2.10;2.10;;;;;;;3.56;100.00;97015.22;5111537;28;20428;-58
2022/12/20 05:41:40;;;;;;;0.97;0.97;;;;;;;3.46;100.00;97003.41;5111759;28;20408;-53
2022/12/20 05:44:09;;;;;;;0.50;0.50;;;;;;;2.55;93.29;96883.38;5111455;28;20523;-54
2022/12/20 05:46:37;;;;;;;0.40;0.37;;;;;;;3.35;86.99;96983.72;5111683;28;20438;-53
2022/12/20 05:49:09;;;;;;;0.50;0.50;;;;;;;3.14;84.01;96978.41;5111202;28;20487;-53
2022/12/20 05:51:38;;;;;;;0.63;0.63;;;;;;;3.31;84.82;97000.81;5111521;28;20462;-54
2022/12/20 05:54:06;;;;;;;0.60;0.60;;;;;;;2.36;83.78;96999.84;5111638;28;20425;-54
2022/12/20 05:56:35;;;;;;;0.90;0.90;;;;;;;2.41;90.60;96992.25;5111849;28;20458;-54
2022/12/20 05:59:03;;;;;;;0.50;0.50;;;;;;;2.61;86.20;97004.88;5111192;28;20436;-54
2022/12/20 06:01:32;;;;;;;0.97;0.83;;;;;;;2.91;87.87;96977.72;5111129;28;20537;-53
2022/12/20 06:04:00;;;;;;;0.40;0.37;;;;;;;3.06;83.65;96996.84;5111851;28;20430;-53
2022/12/20 06:06:30;;;;;;;1.20;1.10;;;;;;;2.94;83.59;96983.38;5111997;28;20448;-53
2022/12/20 06:09:00;;;;;;;1.87;1.77;;;;;;;2.86;82.58;97001.00;5110792;28;20444;-53
2022/12/20 06:11:28;;;;;;;0.50;0.50;;;;;;;2.54;83.47;97004.75;5111756;28;20451;-53
2022/12/20 06:13:58;;;;;;;1.13;1.13;;;;;;;2.28;85.11;96973.72;5111824;28;20450;-53
2022/12/20 06:16:26;;;;;;;1.13;1.03;;;;;;;2.89;84.33;96996.22;5111532;28;20430;-53
2022/12/20 06:18:55;;;;;;;6.00;2.30;;;;;;;2.95;81.63;96999.91;5111294;28;20428;-53
2022/12/20 06:21:23;;;;;;;1.00;1.00;;;;;;;3.33;80.49;97011.91;5111364;28;20416;-54
2022/12/20 06:23:53;;;;;;;1.70;1.60;;;;;;;3.48;79.99;97011.88;5111679;28;20439;-54
2022/12/20 06:26:22;;;;;;;1.90;1.80;;;;;;;3.28;80.50;97001.16;5112817;28;20427;-53
2022/12/20 06:28:53;;;;;;;1.80;1.70;;;;;;;3.01;80.47;97015.72;5115574;28;20456;-53
2022/12/20 06:31:21;;;;;;;11.97;2.03;;;;;;;2.66;79.86;96965.88;5115605;28;20459;-53
2022/12/20 06:33:50;;;;;;;1.10;1.10;;;;;;;3.67;81.95;97016.53;5114853;28;20518;-54
2022/12/20 06:36:18;;;;;;;1.70;0.97;;;;;;;4.29;79.96;97006.28;5114611;28;20427;-53
2022/12/20 06:38:46;;;;;;;1.00;0.97;;;;;;;4.54;75.38;97014.56;5115053;28;20530;-53
2022/12/20 06:41:16;;;;;;;1.23;1.17;;;;;;;5.12;77.38;97007.09;5114918;28;20477;-53
2022/12/20 06:43:45;;;;;;;0.73;0.73;;;;;;;5.43;77.62;96992.69;5114301;28;20432;-53
2022/12/20 06:46:13;;;;;;;2.50;2.30;;;;;;;3.90;70.03;96769.84;5114721;28;20428;-53
2022/12/20 06:48:41;;;;;;;0.90;0.60;;;;;;;5.64;71.43;97000.47;5114639;28;20544;-53
2022/12/20 06:51:09;;;;;;;1.93;1.83;;;;;;;5.80;67.92;97002.75;5114555;28;20566;-53
2022/12/20 06:53:38;;;;;;;1.80;1.70;;;;;;;6.16;66.67;96998.00;5114722;28;20424;-53
2022/12/20 06:56:07;;;;;;;3.00;1.60;;;;;;;6.08;66.15;97000.81;5114784;28;20432;-53
2022/12/20 06:58:37;;;;;;;8.40;4.73;;;;;;;5.77;66.96;97001.31;5113598;28;20526;-53
2022/12/20 07:01:05;;;;;;;5.93;3.60;;;;;;;5.58;67.36;97003.88;5114393;28;20432;-53
2022/12/20 07:03:34;;;;;;;3.43;3.23;;;;;;;5.83;65.49;96997.09;5114890;28;20424;-53
2022/12/20 07:06:02;;;;;;;15.63;3.90;;;;;;;6.83;64.53;97005.72;5114514;28;20994;-53
2022/12/20 07:08:30;;;;;;;1.73;1.63;;;;;;;7.07;61.48;96999.00;5114506;28;20450;-53
2022/12/20 07:11:04;;;;;;;1.93;1.50;;;;;;;7.46;58.98;97006.78;5114293;28;20476;-53
2022/12/20 07:13:33;;;;;;;1.80;1.40;;;;;;;7.36;59.07;97006.41;5114782;28;20453;-53
2022/12/20 07:16:03;;;;;;;7.90;3.50;;;;;;;7.24;57.03;97009.91;5114329;28;20468;-53
2022/12/20 07:18:34;;;;;;;0.63;0.63;;;;;;;7.86;56.42;97006.63;5114220;28;20427;-53
2022/12/20 07:21:03;;;;;;;1.27;1.00;;;;;;;8.07;56.10;97008.97;5113057;28;20961;-53
2022/12/20 07:23:32;;;;;;;1.50;1.40;;;;;;;8.26;53.85;96998.31;5113871;28;20469;-52
2022/12/20 07:26:02;;;;;;;2.30;2.20;;;;;;;8.36;55.85;96976.69;5114105;28;20430;-53
2022/12/20 07:28:31;;;;;;;1.13;0.90;;;;;;;9.03;54.06;96994.44;5114036;28;20434;-52
2022/12/20 07:31:03;;;;;;;2.67;0.83;;;;;;;9.20;54.26;96994.66;5114071;28;20474;-53
2022/12/20 07:33:32;;;;;;;0.60;0.60;;;;;;;9.79;52.65;96999.28;5114044;28;20423;-54
2022/12/20 07:36:01;;;;;;;1.27;1.27;;;;;;;9.43;53.99;96994.81;5113783;28;20434;-53
2022/12/20 07:38:29;;;;;;;1.73;1.63;;;;;;;9.17;54.62;96968.66;5112838;28;20956;-53
2022/12/20 07:40:58;;;;;;;6.10;4.77;;;;;;;9.92;51.26;96991.16;5113844;28;20527;-54
2022/12/20 07:43:26;;;;;;;9.53;1.13;;;;;;;10.21;49.11;96977.13;5114175;28;20420;-54
2022/12/20 07:45:56;;;;;;;0.97;0.97;;;;;;;9.31;49.11;96994.72;5113698;28;20524;-55
2022/12/20 07:48:25;;;;;;;0.90;0.90;;;;;;;10.29;49.97;96986.59;5113390;28;20425;-53
2022/12/20 07:50:58;;;;;;;7.03;1.00;;;;;;;11.07;50.80;96979.22;5113621;28;20557;-54
2022/12/20 07:53:28;;;;;;;1.03;1.03;;;;;;;9.94;49.59;96989.13;5113867;28;20410;-54
2022/12/20 07:55:58;;;;;;;1.00;0.93;;;;;;;10.50;49.63;96978.94;5112819;28;20853;-54
2022/12/20 07:58:27;;;;;;;1.07;1.07;;;;;;;10.35;49.45;96981.19;5113176;28;20461;-54
2022/12/20 08:00:56;;;;;;;1.00;0.83;;;;;;;10.39;48.72;96989.50;5113491;28;20933;-54
2022/12/20 08:03:30;;;;;;;0.80;0.80;;;;;;;11.12;48.07;96981.97;5113473;28;20512;-54
2022/12/20 08:06:03;;;;;;;2.07;0.60;;;;;;;11.20;46.35;96977.13;5113323;28;20941;-54
2022/12/20 08:08:33;;;;;;;1.00;1.00;;;;;;;11.69;45.05;96973.13;5113342;28;20495;-55
2022/12/20 08:11:02;;;;;;;8.00;0.60;;;;;;;11.84;46.55;96978.75;5113250;28;20562;-54
2022/12/20 08:13:32;;;;;;;2.63;2.53;;;;;;;12.45;50.05;96988.63;5113318;28;20427;-54
2022/12/20 08:16:00;;;;;;;1.43;0.87;;;;;;;11.86;45.70;96979.34;5113719;28;20440;-55
2022/12/20 08:18:30;;;;;;;1.60;1.50;;;;;;;11.89;45.03;96978.84;5112952;28;20464;-54
2022/12/20 08:20:59;;;;;;;3.60;0.70;;;;;;;12.88;44.23;96973.88;5113029;28;20828;-54
2022/12/20 08:23:28;;;;;;;0.87;0.87;;;;;;;12.46;42.77;96966.31;5112851;28;20419;-54
2022/12/20 08:25:56;;;;;;;4.13;0.80;;;;;;;12.84;44.89;96975.44;5113013;28;20504;-54
2022/12/20 08:28:25;;;;;;;3.90;1.77;;;;;;;12.77;43.92;96965.75;5112640;28;20461;-54
2022/12/20 08:30:53;;;;;;;0.97;0.97;;;;;;;11.89;45.02;96964.75;5113000;28;20463;-53
2022/12/20 08:33:21;;;;;;;1.40;1.40;;;;;;;12.62;42.63;96959.41;5112784;28;20431;-53
2022/12/20 08:35:58;;;;;;;1.03;1.03;;;;;;;13.14;43.33;96947.44;5113071;28;20416;-53
2022/12/20 08:38:28;;;;;;;1.03;1.03;;;;;;;12.45;42.67;96953.25;5112198;28;20427;-53
2022/12/20 08:40:56;;;;;;;4.30;1.20;;;;;;;12.93;42.27;96940.19;5112897;28;20430;-54
2022/12/20 08:43:24;;;;;;;1.80;0.83;;;;;;;13.48;40.99;96942.84;5112829;28;20427;-54
2022/12/20 08:45:54;;;;;;;0.83;0.83;;;;;;;13.65;41.21;96940.91;5112853;28;20512;-54
2022/12/20 08:48:22;;;;;;;0.80;0.60;;;;;;;14.30;39.46;96940.78;5112297;28;20490;-54
2022/12/20 08:50:55;;;;;;;2.70;1.70;;;;;;;13.26;41.99;96910.84;5112769;28;20479;-54
2022/12/20 08:53:25;;;;;;;0.60;0.60;;;;;;;13.71;41.00;96931.13;5112896;28;20814;-54
2022/12/20 08:55:53;;;;;;;0.60;0.60;;;;;;;12.89;41.30;96935.59;5112625;28;20561;-54
2022/12/20 08:58:22;;;;;;;1.73;1.40;;;;;;;13.58;41.73;96929.66;5112590;28;20434;-54
2022/12/20 09:00:50;;;;;;;0.87;0.80;;;;;;;14.43;39.62;96920.94;5112346;28;21138;-52
2022/12/20 09:03:19;;;;;;;0.67;0.67;;;;;;;14.35;38.27;96929.38;5112606;28;20442;-54
2022/12/20 09:05:47;;;;;;;2.73;1.27;;;;;;;13.88;40.14;96922.00;5112547;28;20420;-54
2022/12/20 09:08:16;;;;;;;0.50;0.50;;;;;;;13.84;39.33;96920.06;5112059;28;20430;-54
2022/12/20 09:10:46;;;;;;;7.10;1.10;;;;;;;14.50;39.56;96917.00;5112289;28;20504;-54
2022/12/20 09:13:14;;;;;;;4.13;1.23;;;;;;;14.35;40.38;96913.38;5111897;28;20515;-53
2022/12/20 09:15:45;;;;;;;3.50;1.53;;;;;;;14.80;36.68;96907.63;5112882;28;20860;-54
2022/12/20 09:18:14;;;;;;;1.70;1.57;;;;;;;15.65;36.19;96904.59;5112049;28;20507;-53
2022/12/20 09:20:44;;;;;;;1.13;1.00;;;;;;;15.85;34.57;96885.94;5112024;28;20423;-54
2022/12/20 09:23:12;;;;;;;3.00;0.70;;;;;;;15.60;36.45;96896.56;5112103;28;20427;-53
2022/12/20 09:25:40;;;;;;;1.10;0.90;;;;;;;16.05;35.57;96887.84;5111847;28;21006;-53
2022/12/20 09:28:10;;;;;;;1.37;1.27;;;;;;;16.30;34.27;96869.16;5111909;28;20432;-53
2022/12/20 09:30:38;;;;;;;1.10;1.00;;;;;;;16.58;33.77;96883.88;5111999;28;20879;-53
2022/12/20 09:33:07;;;;;;;0.40;0.40;;;;;;;18.03;31.04;96869.22;5111958;28;20955;-53
2022/12/20 09:35:43;;;;;;;2.70;0.80;;;;;;;16.65;31.73;96879.06;5111887;28;20457;-53
2022/12/20 09:38:12;;;;;;;1.47;1.27;;;;;;;16.34;33.00;96879.03;5111221;28;20942;-53
2022/12/20 09:40:49;;;;;;;2.00;0.73;;;;;;;16.54;33.04;96874.81;5111238;28;20431;-52
2022/12/20 09:43:20;;;;;;;1.97;0.63;;;;;;;16.95;32.90;96862.97;5111594;28;20431;-52
2022/12/20 09:45:52;;;;;;;0.40;0.40;;;;;;;16.10;33.34;96847.72;5111924;28;20432;-52
2022/12/20 09:48:24;;;;;;;1.13;1.03;;;;;;;14.98;34.70;96813.72;5111445;28;20431;-52
2022/12/20 09:51:03;;;;;;;0.60;0.60;;;;;;;15.77;34.56;96865.06;5111785;28;20472;-52
2022/12/20 09:53:43;;;;;;;1.23;1.13;;;;;;;15.70;32.33;96856.50;5111398;28;20439;-53
2022/12/20 09:56:19;;;;;;;0.40;0.30;;;;;;;16.39;32.09;96846.16;5111982;28;20424;-53
2022/12/20 09:58:59;;;;;;;4.47;1.00;;;;;;;16.21;33.57;96839.47;5111593;28;20438;-53
2022/12/20 10:01:29;;;;;;;0.80;0.80;;;;;;;16.83;32.50;96849.06;5113303;28;20492;-53
2022/12/20 10:04:12;;;;;;;1.23;1.23;;;;;;;16.87;32.39;96828.69;5115717;28;20420;-53
2022/12/20 10:06:51;;;;;;;1.33;1.23;;;;;;;17.55;31.84;96821.75;5116026;28;20804;-53
2022/12/20 10:09:40;;;;;;;0.50;0.50;;;;;;;17.04;30.84;96834.53;5116039;28;20482;-53
2022/12/20 10:12:20;;;;;;;0.40;0.30;;;;;;;17.07;35.08;96828.63;5115474;28;21045;-53
2022/12/20 10:15:03;;;;;;;1.13;0.77;;;;;;;17.26;30.14;96829.63;5115654;28;20519;-53
2022/12/20 10:17:46;;;;;;;0.47;0.40;;;;;;;17.22;30.16;96815.19;5115670;28;20500;-53
2022/12/20 10:20:35;;;;;;;5.63;1.93;;;;;;;16.03;30.54;96821.25;5115402;28;20440;-53
2022/12/20 10:23:09;;;;;;;2.93;0.80;;;;;;;17.44;29.33;96812.13;5114780;28;20438;-54
2022/12/20 10:25:37;;;;;;;0.93;0.93;;;;;;;17.82;29.17;96805.22;5115482;28;20535;-53
2022/12/20 10:28:14;;;;;;;7.03;0.60;;;;;;;17.64;29.92;96796.75;5115701;28;20427;-53
2022/12/20 10:30:44;;;;;;;0.90;0.90;;;;;;;15.22;31.72;96796.22;5115628;28;20431;-54
2022/12/20 10:33:19;;;;;;;1.27;0.70;;;;;;;15.62;30.43;96798.19;5114510;28;20463;-54
2022/12/20 10:35:49;;;;;;;1.13;1.03;;;;;;;14.41;32.29;96795.00;5115163;28;20506;-53
2022/12/20 10:38:17;;;;;;;1.00;1.00;;;;;;;16.50;30.58;96783.50;5114972;28;20428;-53
2022/12/20 10:40:47;;;;;;;0.50;0.47;;;;;;;16.43;29.47;96778.44;5114935;28;20869;-54
2022/12/20 10:43:43;;;;;;;0.60;0.60;;;;;;;17.04;29.96;96748.81;5115107;28;20498;-54
2022/12/20 10:46:15;;;;;;;0.40;0.40;;;;;;;17.12;29.61;96765.13;5115025;28;20458;-54
2022/12/20 10:48:45;;;;;;;1.10;0.73;;;;;;;17.58;29.88;96754.97;5114734;28;20459;-56
2022/12/20 10:51:16;;;;;;;0.73;0.70;;;;;;;16.99;29.16;96748.84;5115056;28;20445;-56
2022/12/20 10:53:57;;;;;;;0.40;0.30;;;;;;;18.22;29.42;96735.94;5114328;28;20514;-57
2022/12/20 10:56:27;;;;;;;2.20;0.50;;;;;;;18.47;29.67;96734.91;5114326;28;20522;-56
2022/12/20 10:58:58;;;;;;;1.90;0.90;;;;;;;18.41;28.17;96736.03;5114586;28;20488;-56
2022/12/20 11:01:33;;;;;;;0.90;0.50;;;;;;;17.70;28.51;96733.97;5114613;28;20471;-55
2022/12/20 11:04:05;;;;;;;0.50;0.40;;;;;;;18.70;27.38;96723.41;5114445;28;20427;-56
2022/12/20 11:06:45;;;;;;;0.80;0.80;;;;;;;19.05;26.89;96716.00;5114165;28;20470;-56
2022/12/20 11:09:24;;;;;;;1.53;0.60;;;;;;;18.81;29.39;96716.03;5114486;28;20439;-56
2022/12/20 11:12:05;;;;;;;1.17;1.10;;;;;;;19.23;28.65;96713.31;5113534;28;20865;-56
2022/12/20 11:14:35;;;;;;;0.73;0.73;;;;;;;18.76;27.33;96710.72;5114093;28;20447;-55
2022/12/20 11:17:21;;;;;;;2.37;1.47;;;;;;;18.31;26.55;96698.56;5113562;28;20432;-55
2022/12/20 11:20:06;;;;;;;1.17;0.63;;;;;;;18.56;27.25;96694.81;5114560;28;20435;-55
2022/12/20 11:22:47;;;;;;;0.80;0.80;;;;;;;18.02;28.01;96689.72;5114167;28;20464;-56
2022/12/20 11:25:33;;;;;;;1.20;1.00;;;;;;;18.40;26.88;96673.50;5114373;28;20462;-56
2022/12/20 11:28:18;;;;;;;0.77;0.60;;;;;;;18.68;26.78;96639.63;5113743;28;20427;-56
2022/12/20 11:30:57;;;;;;;0.43;0.30;;;;;;;19.36;26.33;96671.47;5112999;28;20435;-56
2022/12/20 11:33:49;;;;;;;0.70;0.70;;;;;;;19.98;25.72;96660.28;5114248;28;20463;-56
2022/12/20 11:36:31;;;;;;;2.10;0.70;;;;;;;18.64;27.24;96654.72;5113642;28;20428;-56
2022/12/20 11:39:09;;;;;;;1.70;1.20;;;;;;;18.05;26.23;96638.19;5114142;28;20430;-56
2022/12/20 11:41:46;;;;;;;0.80;0.60;;;;;;;19.05;25.97;96635.38;5113607;28;20953;-56
2022/12/20 11:44:25;;;;;;;1.53;1.00;;;;;;;19.27;25.91;96507.34;5113547;28;20451;-56
2022/12/20 11:47:29;;;;;;;1.70;1.50;;;;;;;18.04;25.87;96593.63;5114087;28;20501;-56
2022/12/20 11:50:14;;;;;;;0.83;0.47;;;;;;;19.12;26.20;96641.19;5113423;28;20466;-58
2022/12/20 11:52:47;;;;;;;0.90;0.90;;;;;;;18.37;26.29;96615.00;5114058;28;20827;-56
2022/12/20 11:55:20;;;;;;;3.80;3.70;;;;;;;18.85;25.73;96631.88;5113250;28;20946;-56
2022/12/20 11:57:57;;;;;;;0.70;0.50;;;;;;;18.91;25.33;96629.91;5113167;28;20460;-57
2022/12/20 12:00:52;;;;;;;0.97;0.60;;;;;;;18.62;24.91;96621.97;5113474;28;20444;-57
2022/12/20 12:03:29;;;;;;;6.40;1.37;;;;;;;17.40;25.63;96626.94;5113528;28;20424;-56
2022/12/20 12:06:02;;;;;;;3.43;1.00;;;;;;;16.62;25.79;96628.75;5113340;28;20434;-56
2022/12/20 12:08:40;;;;;;;0.70;0.50;;;;;;;17.41;25.07;96579.47;5113209;28;20485;-57